Time;durP1;ratioP1;P1;durP2;ratioP2;P2;SDS_P1;SDS_P2;PMS_P1;PMS_P2;Temp;Humidity;BMP_temperature;BMP_pressure;BME280_temperature;BME280_humidity;BME280_pressure;Samples;Min_cycle;Max_cycle;Signal;HPM_P1;HPM_P2
2022/03/03 00:02:23;;;;;;;30.55;15.98;;;-1.80;99.90;;;;;;4994436;28;20043;-88
2022/03/03 00:04:49;;;;;;;33.40;15.90;;;-1.80;99.90;;;;;;4997312;28;20394;-89
2022/03/03 00:07:15;;;;;;;29.23;15.98;;;-1.80;99.90;;;;;;5006303;28;20081;-85
2022/03/03 00:09:41;;;;;;;29.25;15.45;;;-1.80;99.90;;;;;;4983145;28;20038;-90
2022/03/03 00:12:07;;;;;;;28.77;14.60;;;-2.00;99.90;;;;;;4994562;28;20038;-87
2022/03/03 00:14:33;;;;;;;31.17;16.77;;;-2.10;99.90;;;;;;4994764;28;20036;-89
2022/03/03 00:16:58;;;;;;;29.58;16.08;;;-2.20;99.90;;;;;;5002994;28;20108;-89
2022/03/03 00:19:24;;;;;;;32.35;15.75;;;-2.10;99.90;;;;;;5002592;28;20377;-86
2022/03/03 00:21:50;;;;;;;30.30;16.70;;;-2.10;99.90;;;;;;5001211;28;20482;-88
2022/03/03 00:24:15;;;;;;;29.17;15.45;;;-2.10;99.90;;;;;;4995936;28;20482;-87
2022/03/03 00:26:41;;;;;;;24.63;16.45;;;-2.20;99.90;;;;;;4997698;28;20509;-87
2022/03/03 00:29:07;;;;;;;32.22;15.85;;;-2.30;99.90;;;;;;4991807;28;20027;-87
2022/03/03 00:31:33;;;;;;;26.02;13.80;;;-2.30;99.90;;;;;;4989568;28;20042;-87
2022/03/03 00:33:59;;;;;;;36.35;16.10;;;-2.40;99.90;;;;;;4994366;28;20077;-87
2022/03/03 00:36:24;;;;;;;31.85;16.05;;;-2.50;99.90;;;;;;4996690;28;20029;-87
2022/03/03 00:38:51;;;;;;;30.30;15.82;;;-2.50;99.90;;;;;;4989696;28;20058;-89
2022/03/03 00:41:18;;;;;;;28.92;15.75;;;-2.50;99.90;;;;;;4997166;28;20033;-87
2022/03/03 00:43:43;;;;;;;30.88;15.77;;;-2.40;99.90;;;;;;4999406;28;20046;-89
2022/03/03 00:46:09;;;;;;;29.40;14.45;;;-2.30;99.90;;;;;;5002278;28;20057;-89
2022/03/03 00:48:35;;;;;;;28.95;16.35;;;-2.30;99.90;;;;;;4998368;28;20081;-88
2022/03/03 00:51:06;;;;;;;30.02;15.73;;;-2.30;99.90;;;;;;4996911;28;20023;-87
2022/03/03 00:53:36;;;;;;;37.05;15.93;;;-2.40;99.90;;;;;;4994967;28;20505;-88
2022/03/03 00:56:02;;;;;;;32.72;15.95;;;-2.40;99.90;;;;;;4994893;28;20337;-87
2022/03/03 00:58:28;;;;;;;34.95;17.00;;;-2.30;99.90;;;;;;4999133;28;20109;-88
2022/03/03 01:00:54;;;;;;;33.72;15.70;;;-2.30;99.90;;;;;;5004479;28;20509;-87
2022/03/03 01:03:19;;;;;;;27.50;15.00;;;-2.40;99.90;;;;;;4990477;28;20050;-89
2022/03/03 01:05:45;;;;;;;26.48;14.63;;;-2.40;99.90;;;;;;4990857;28;20486;-89
2022/03/03 01:08:11;;;;;;;41.65;17.13;;;-2.50;99.90;;;;;;4989679;28;20161;-85
2022/03/03 01:10:38;;;;;;;31.40;16.05;;;-2.60;99.90;;;;;;4988978;28;20061;-91
2022/03/03 01:13:04;;;;;;;34.15;16.83;;;-2.50;99.90;;;;;;4990374;28;20684;-88
2022/03/03 01:15:30;;;;;;;38.90;16.25;;;-2.50;99.90;;;;;;4991187;28;20038;-90
2022/03/03 01:17:55;;;;;;;30.15;15.05;;;-2.50;99.90;;;;;;4991309;28;20073;-88
2022/03/03 01:20:21;;;;;;;30.08;14.52;;;-2.60;99.90;;;;;;4990592;28;20046;-87
2022/03/03 01:22:47;;;;;;;29.02;15.77;;;-2.70;99.90;;;;;;4989211;28;20034;-89
2022/03/03 01:25:13;;;;;;;33.28;16.58;;;-2.80;99.90;;;;;;4992340;28;20029;-89
2022/03/03 01:27:39;;;;;;;29.27;14.90;;;-2.80;99.90;;;;;;4992398;28;20644;-88
2022/03/03 01:30:07;;;;;;;27.48;15.02;;;-2.90;99.90;;;;;;4992177;28;20089;-87
2022/03/03 01:32:33;;;;;;;37.05;16.48;;;-2.90;99.90;;;;;;4992146;28;20092;-87
2022/03/03 01:34:59;;;;;;;36.22;17.60;;;-2.80;99.90;;;;;;5004088;28;20030;-88
2022/03/03 01:37:24;;;;;;;31.15;15.60;;;-2.80;99.90;;;;;;5003640;28;20037;-88
2022/03/03 01:39:50;;;;;;;29.25;15.02;;;-2.90;99.90;;;;;;4998352;28;20370;-89
2022/03/03 01:42:17;;;;;;;33.47;15.07;;;-3.00;99.90;;;;;;5007110;28;20052;-87
2022/03/03 01:44:44;;;;;;;31.05;15.43;;;-3.10;99.90;;;;;;5010664;28;20018;-89
2022/03/03 01:47:19;;;;;;;38.03;15.75;;;-3.10;99.90;;;;;;5003669;28;20030;-89
2022/03/03 01:49:46;;;;;;;29.35;16.17;;;-3.10;99.90;;;;;;4996638;28;20026;-85
2022/03/03 01:52:12;;;;;;;33.30;15.23;;;-3.20;99.90;;;;;;5000032;28;20038;-87
2022/03/03 01:54:38;;;;;;;32.67;16.20;;;-3.10;99.90;;;;;;5006016;28;20112;-86
2022/03/03 01:57:05;;;;;;;30.20;16.98;;;-2.90;99.90;;;;;;4997633;28;20044;-88
2022/03/03 01:59:31;;;;;;;36.03;18.25;;;-2.90;99.90;;;;;;5000970;28;20026;-88
2022/03/03 02:01:57;;;;;;;36.60;15.35;;;-2.90;99.90;;;;;;4991959;28;20077;-88
2022/03/03 02:04:22;;;;;;;29.75;15.13;;;-2.90;99.90;;;;;;4987209;28;20093;-89
2022/03/03 02:06:48;;;;;;;30.42;15.43;;;-3.00;99.90;;;;;;4991758;28;20031;-87
2022/03/03 02:09:14;;;;;;;30.13;15.18;;;-3.00;99.90;;;;;;5002525;28;20109;-88
2022/03/03 02:11:39;;;;;;;33.22;16.00;;;-3.10;99.90;;;;;;4992321;28;20022;-89
2022/03/03 02:14:05;;;;;;;32.60;14.80;;;-3.00;99.90;;;;;;5000323;28;20030;-89
2022/03/03 02:16:31;;;;;;;29.17;15.73;;;-2.90;99.90;;;;;;4994196;28;20034;-87
2022/03/03 02:18:57;;;;;;;28.20;15.00;;;-3.00;99.90;;;;;;4991218;28;20030;-89
2022/03/03 02:21:22;;;;;;;33.80;17.67;;;-3.00;99.90;;;;;;5001655;28;20504;-88
2022/03/03 02:23:48;;;;;;;33.70;13.68;;;-3.00;99.90;;;;;;4999076;28;20022;-90
2022/03/03 02:26:22;;;;;;;33.60;15.90;;;-3.10;99.90;;;;;;4995868;28;20062;-88
2022/03/03 02:28:49;;;;;;;28.38;13.50;;;-3.10;99.90;;;;;;4991280;28;20026;-84
2022/03/03 02:31:16;;;;;;;35.08;15.30;;;-3.20;99.90;;;;;;4991977;28;20061;-89
2022/03/03 02:33:41;;;;;;;29.50;16.77;;;-3.30;99.90;;;;;;4992444;28;20030;-86
2022/03/03 02:36:22;;;;;;;34.40;17.08;;;-3.10;99.90;;;;;;5000363;28;20026;-89
2022/03/03 02:38:50;;;;;;;37.92;16.20;;;-3.20;99.90;;;;;;5000821;28;20041;-89
2022/03/03 02:41:15;;;;;;;38.95;16.50;;;-3.20;99.90;;;;;;4990849;28;20041;-89
2022/03/03 02:43:41;;;;;;;29.23;16.30;;;-3.30;99.90;;;;;;4993953;28;20022;-89
2022/03/03 02:46:08;;;;;;;29.60;15.02;;;-3.40;99.90;;;;;;4996389;28;20065;-89
2022/03/03 02:48:34;;;;;;;32.38;15.95;;;-3.50;99.90;;;;;;5000629;28;20033;-86
2022/03/03 02:51:00;;;;;;;30.45;15.85;;;-3.50;99.90;;;;;;5000913;28;20030;-86
2022/03/03 02:53:26;;;;;;;34.22;16.98;;;-3.50;99.90;;;;;;4990562;28;20042;-88
2022/03/03 02:55:52;;;;;;;37.85;15.75;;;-3.60;99.90;;;;;;4994455;28;20038;-90
2022/03/03 02:58:18;;;;;;;33.95;16.00;;;-3.50;99.90;;;;;;5001728;28;20030;-89
2022/03/03 03:00:44;;;;;;;40.40;18.80;;;-3.40;99.90;;;;;;4994853;28;20057;-90
2022/03/03 03:03:10;;;;;;;35.17;17.30;;;-3.50;99.90;;;;;;4990574;28;20042;-89
2022/03/03 03:05:36;;;;;;;28.20;15.13;;;-3.60;99.90;;;;;;4989296;28;20038;-88
2022/03/03 03:08:02;;;;;;;30.42;15.05;;;-3.50;99.90;;;;;;4990717;28;20038;-86
2022/03/03 03:10:28;;;;;;;29.63;15.77;;;-3.70;99.90;;;;;;4990679;28;20088;-89
2022/03/03 03:12:54;;;;;;;29.15;13.88;;;-3.70;99.90;;;;;;4989277;28;20420;-88
2022/03/03 03:15:20;;;;;;;30.25;16.38;;;-3.80;99.90;;;;;;4990572;28;20509;-87
2022/03/03 03:17:46;;;;;;;29.23;16.75;;;-3.70;99.90;;;;;;4987816;28;20061;-86
2022/03/03 03:20:12;;;;;;;34.67;17.27;;;-3.70;99.90;;;;;;4987410;28;20055;-90
2022/03/03 03:22:38;;;;;;;27.95;15.68;;;-3.80;99.90;;;;;;4990508;28;20034;-87
2022/03/03 03:25:10;;;;;;;31.45;16.20;;;-3.80;99.90;;;;;;5005776;28;20030;-89
2022/03/03 03:27:41;;;;;;;33.80;16.13;;;-3.90;99.90;;;;;;4989305;28;20117;-87
2022/03/03 03:30:10;;;;;;;34.70;16.23;;;-3.80;99.90;;;;;;4990375;28;20027;-90
2022/03/03 03:32:36;;;;;;;31.52;13.93;;;-3.80;99.90;;;;;;4998274;28;20033;-87
2022/03/03 03:35:04;;;;;;;26.92;13.10;;;-3.90;99.90;;;;;;4997393;28;20370;-87
2022/03/03 03:37:30;;;;;;;32.67;16.60;;;-3.90;99.90;;;;;;4994699;28;20117;-87
2022/03/03 03:39:56;;;;;;;29.63;16.02;;;-4.00;99.90;;;;;;4995880;28;20032;-88
2022/03/03 03:42:21;;;;;;;32.00;16.67;;;-3.90;99.90;;;;;;5000306;28;20365;-88
2022/03/03 03:44:47;;;;;;;30.48;14.13;;;-3.90;99.90;;;;;;4999247;28;20054;-86
2022/03/03 03:47:13;;;;;;;31.52;16.27;;;-3.70;99.90;;;;;;4998938;28;20448;-90
2022/03/03 03:49:39;;;;;;;28.67;15.93;;;-3.70;99.90;;;;;;4996872;28;20026;-88
2022/03/03 03:52:05;;;;;;;31.33;15.65;;;-3.80;99.90;;;;;;5003223;28;20288;-89
2022/03/03 03:54:31;;;;;;;30.05;15.32;;;-3.80;99.90;;;;;;4995391;28;20450;-89
2022/03/03 03:56:57;;;;;;;30.25;16.58;;;-3.80;99.90;;;;;;4994699;28;20065;-87
2022/03/03 03:59:23;;;;;;;31.38;15.32;;;-3.80;99.90;;;;;;5006053;28;20100;-91
2022/03/03 04:01:48;;;;;;;29.65;17.02;;;-3.80;99.90;;;;;;4990025;28;20039;-86
2022/03/03 04:04:14;;;;;;;32.47;17.00;;;-3.80;99.90;;;;;;4998101;28;20065;-88
2022/03/03 04:06:40;;;;;;;31.33;15.57;;;-3.80;99.90;;;;;;4994685;28;20576;-87
2022/03/03 04:09:06;;;;;;;33.72;16.00;;;-3.80;99.90;;;;;;5001137;28;20126;-88
2022/03/03 04:11:31;;;;;;;36.05;16.13;;;-3.80;99.90;;;;;;4991801;28;20441;-89
2022/03/03 04:13:57;;;;;;;35.17;15.68;;;-3.90;99.90;;;;;;4996343;28;20041;-87
2022/03/03 04:16:24;;;;;;;33.10;17.88;;;-4.00;99.90;;;;;;4994417;28;20307;-88
2022/03/03 04:18:50;;;;;;;30.40;16.20;;;-4.10;99.90;;;;;;4998158;28;20444;-89
2022/03/03 04:21:16;;;;;;;29.88;15.57;;;-4.10;99.90;;;;;;4997166;28;20057;-89
2022/03/03 04:23:42;;;;;;;36.50;17.20;;;-4.00;99.90;;;;;;5004040;28;20025;-88
2022/03/03 04:26:08;;;;;;;32.42;16.27;;;-3.90;99.90;;;;;;4999120;28;20089;-86
2022/03/03 04:28:33;;;;;;;30.63;16.13;;;-4.00;99.90;;;;;;4999012;28;20027;-86
2022/03/03 04:30:59;;;;;;;33.45;16.85;;;-4.10;99.90;;;;;;5000775;28;20034;-88
2022/03/03 04:33:25;;;;;;;33.30;15.93;;;-4.10;99.90;;;;;;5008831;28;20470;-89
2022/03/03 04:35:51;;;;;;;32.88;17.40;;;-4.20;99.90;;;;;;5009610;28;20033;-88
2022/03/03 04:38:16;;;;;;;34.58;17.92;;;-4.20;99.90;;;;;;4993308;28;20034;-87
2022/03/03 04:40:42;;;;;;;34.88;16.08;;;-4.20;99.90;;;;;;5012305;28;20113;-88
2022/03/03 04:43:08;;;;;;;33.17;15.73;;;-4.20;99.90;;;;;;4995860;28;20378;-85
2022/03/03 04:45:34;;;;;;;37.88;17.90;;;-4.10;99.90;;;;;;5001201;28;20022;-89
2022/03/03 04:48:00;;;;;;;31.13;15.32;;;-3.90;99.90;;;;;;4996537;28;20033;-85
2022/03/03 04:50:25;;;;;;;31.08;15.90;;;-3.90;99.90;;;;;;5003825;28;20044;-87
2022/03/03 04:52:51;;;;;;;36.30;17.38;;;-4.00;99.90;;;;;;5013151;28;20034;-87
2022/03/03 04:55:16;;;;;;;44.95;18.40;;;-4.10;99.90;;;;;;4986153;28;20493;-88
2022/03/03 04:57:42;;;;;;;33.33;16.50;;;-4.20;99.90;;;;;;5009211;28;20042;-89
2022/03/03 05:00:09;;;;;;;32.10;16.67;;;-4.20;99.90;;;;;;5002424;28;20048;-87
2022/03/03 05:02:35;;;;;;;31.80;16.58;;;-4.30;99.90;;;;;;4991348;28;20047;-88
2022/03/03 05:05:00;;;;;;;35.67;15.70;;;-4.40;99.90;;;;;;4993465;28;20034;-88
2022/03/03 05:07:26;;;;;;;29.70;15.20;;;-4.40;99.90;;;;;;4989392;28;20386;-87
2022/03/03 05:09:52;;;;;;;32.55;15.30;;;-4.50;99.90;;;;;;4991345;28;20513;-88
2022/03/03 05:12:17;;;;;;;32.85;15.00;;;-4.40;99.90;;;;;;4991156;28;20053;-86
2022/03/03 05:14:43;;;;;;;31.67;16.38;;;-4.30;99.90;;;;;;5006242;28;20032;-86
2022/03/03 05:17:09;;;;;;;33.13;16.70;;;-4.50;99.90;;;;;;5007702;28;20169;-87
2022/03/03 05:19:34;;;;;;;33.67;15.70;;;-4.60;99.90;;;;;;4989453;28;20038;-88
2022/03/03 05:22:00;;;;;;;26.65;13.30;;;-4.70;99.90;;;;;;4991326;28;20034;-88
2022/03/03 05:24:25;;;;;;;31.13;15.48;;;-4.70;99.90;;;;;;4996947;28;20082;-89
2022/03/03 05:26:51;;;;;;;30.83;15.48;;;-4.70;99.90;;;;;;4992290;28;20101;-86
2022/03/03 05:29:17;;;;;;;30.98;15.48;;;-4.80;99.90;;;;;;4990024;28;20037;-87
2022/03/03 05:31:43;;;;;;;31.27;16.08;;;-4.80;99.90;;;;;;4994800;28;20035;-90
2022/03/03 05:34:08;;;;;;;31.08;14.82;;;-4.70;99.90;;;;;;4992015;28;20105;-90
2022/03/03 05:36:38;;;;;;;36.15;16.45;;;-4.70;99.90;;;;;;5008036;28;20426;-88
2022/03/03 05:39:05;;;;;;;32.28;16.20;;;-4.60;99.90;;;;;;4991858;28;20045;-87
2022/03/03 05:41:31;;;;;;;36.65;17.60;;;-4.50;99.90;;;;;;4992609;28;20041;-89
2022/03/03 05:43:58;;;;;;;31.70;16.05;;;-4.40;99.90;;;;;;4989723;28;20033;-86
2022/03/03 05:46:24;;;;;;;29.88;16.67;;;-4.40;99.90;;;;;;4997660;28;20064;-89
2022/03/03 05:48:50;;;;;;;34.38;14.55;;;-4.30;99.90;;;;;;4992149;28;20027;-86
2022/03/03 05:51:16;;;;;;;29.95;14.65;;;-4.40;99.90;;;;;;4990255;28;20113;-90
2022/03/03 05:53:42;;;;;;;33.78;15.63;;;-4.50;99.90;;;;;;4991533;28;20092;-86
2022/03/03 05:56:09;;;;;;;31.35;15.40;;;-4.60;99.90;;;;;;4991361;28;20034;-89
2022/03/03 05:58:44;;;;;;;29.90;16.02;;;-4.50;99.90;;;;;;4991809;28;20501;-89
2022/03/03 06:01:11;;;;;;;29.92;15.48;;;-4.40;99.90;;;;;;4989178;28;20068;-89
2022/03/03 06:03:37;;;;;;;29.48;16.00;;;-4.30;99.90;;;;;;4990980;28;20089;-88
2022/03/03 06:06:26;;;;;;;32.67;16.88;;;-4.20;99.90;;;;;;4991300;28;20077;-88
2022/03/03 06:08:55;;;;;;;33.38;18.20;;;-4.20;99.90;;;;;;4986490;28;20105;-87
2022/03/03 06:11:24;;;;;;;27.92;14.23;;;-4.40;99.90;;;;;;4989251;28;20022;-88
2022/03/03 06:13:57;;;;;;;34.53;16.02;;;-4.30;99.90;;;;;;4977334;28;20058;-84
2022/03/03 06:16:23;;;;;;;32.88;15.73;;;-4.50;99.90;;;;;;4975116;28;20026;-88
2022/03/03 06:18:49;;;;;;;33.25;17.73;;;-4.40;99.90;;;;;;4970340;28;20089;-88
2022/03/03 06:21:16;;;;;;;35.70;16.58;;;-4.30;99.90;;;;;;4991385;28;20038;-86
2022/03/03 06:23:43;;;;;;;35.13;17.88;;;-4.20;99.90;;;;;;4983093;28;20029;-88
2022/03/03 06:26:12;;;;;;;34.80;17.33;;;-4.10;99.90;;;;;;4989879;28;20113;-86
2022/03/03 06:28:38;;;;;;;31.33;15.02;;;-4.10;99.90;;;;;;4988810;28;20096;-82
2022/03/03 06:31:06;;;;;;;28.15;17.10;;;-4.10;99.90;;;;;;4990365;28;20429;-87
2022/03/03 06:33:33;;;;;;;34.50;16.77;;;-4.10;99.90;;;;;;4990759;28;20041;-87
2022/03/03 06:35:59;;;;;;;34.33;15.85;;;-4.00;99.90;;;;;;5005841;28;20462;-88
2022/03/03 06:38:26;;;;;;;36.85;18.02;;;-4.00;99.90;;;;;;4988572;28;20026;-88
2022/03/03 06:40:54;;;;;;;40.50;17.42;;;-4.00;99.90;;;;;;4989905;28;20125;-88
2022/03/03 06:43:20;;;;;;;43.35;18.92;;;-3.90;99.90;;;;;;4991040;28;20096;-87
2022/03/03 06:45:46;;;;;;;39.35;19.42;;;-3.80;99.90;;;;;;4977671;28;20109;-90
2022/03/03 06:48:12;;;;;;;37.33;17.65;;;-3.70;99.90;;;;;;4987927;28;20035;-85
2022/03/03 06:50:40;;;;;;;50.53;21.90;;;-3.70;99.90;;;;;;4990170;28;20050;-89
2022/03/03 06:53:09;;;;;;;39.90;17.60;;;-3.60;99.90;;;;;;4986155;28;20850;-88
2022/03/03 06:55:37;;;;;;;30.33;16.70;;;-3.50;99.90;;;;;;4989299;28;20022;-89
2022/03/03 06:58:03;;;;;;;36.28;17.15;;;-3.40;99.90;;;;;;4986184;28;20377;-87
2022/03/03 07:00:33;;;;;;;35.10;18.02;;;-3.30;99.90;;;;;;4988369;28;20018;-86
2022/03/03 07:03:04;;;;;;;39.30;17.83;;;-3.20;99.90;;;;;;4993907;28;20108;-88
2022/03/03 07:05:33;;;;;;;49.03;18.88;;;-3.10;99.90;;;;;;4994937;28;20109;-88
2022/03/03 07:07:59;;;;;;;30.13;16.80;;;-3.00;99.90;;;;;;4992717;28;20037;-86
2022/03/03 07:10:25;;;;;;;35.42;17.88;;;-2.90;99.90;;;;;;4993998;28;20277;-86
2022/03/03 07:12:57;;;;;;;35.15;17.02;;;-2.80;99.90;;;;;;4984690;28;20046;-90
2022/03/03 07:15:24;;;;;;;43.30;17.88;;;-2.80;99.90;;;;;;5003608;28;20059;-87
2022/03/03 07:17:53;;;;;;;35.53;16.80;;;-2.70;99.90;;;;;;4995647;28;20026;-88
2022/03/03 07:20:38;;;;;;;40.35;18.77;;;-2.60;99.90;;;;;;4998400;28;20038;-91
2022/03/03 07:23:32;;;;;;;33.63;17.02;;;-2.50;99.90;;;;;;5001241;28;20085;-85
2022/03/03 07:26:00;;;;;;;34.90;17.80;;;-2.40;99.90;;;;;;4998007;28;20057;-86
2022/03/03 07:28:28;;;;;;;44.05;19.48;;;-2.20;99.90;;;;;;4985038;28;20028;-87
2022/03/03 07:30:55;;;;;;;36.25;18.30;;;-2.10;99.90;;;;;;4993072;28;20034;-87
2022/03/03 07:33:36;;;;;;;54.72;21.08;;;-2.00;99.90;;;;;;4988393;28;20026;-86
2022/03/03 07:36:03;;;;;;;41.22;19.27;;;-1.80;99.90;;;;;;4983609;28;20018;-87
2022/03/03 07:38:35;;;;;;;42.00;19.67;;;-1.70;99.90;;;;;;4989169;28;20034;-89
2022/03/03 07:41:02;;;;;;;42.63;19.65;;;-1.60;99.90;;;;;;4989009;28;20535;-88
2022/03/03 07:43:28;;;;;;;35.22;18.80;;;-1.50;99.90;;;;;;4988291;28;20027;-86
2022/03/03 07:45:54;;;;;;;40.55;19.88;;;-1.30;99.90;;;;;;4989024;28;20239;-88
2022/03/03 07:48:23;;;;;;;42.63;18.40;;;-1.20;99.90;;;;;;4971954;28;20030;-87
2022/03/03 07:50:49;;;;;;;40.45;17.67;;;-1.00;99.90;;;;;;4989537;28;20088;-89
2022/03/03 07:53:15;;;;;;;34.28;16.42;;;-0.90;99.90;;;;;;5008579;28;20036;-82
2022/03/03 07:55:45;;;;;;;35.55;18.92;;;-0.80;99.90;;;;;;4991576;28;20105;-88
2022/03/03 07:58:22;;;;;;;40.33;19.13;;;-0.70;99.90;;;;;;4993405;28;20114;-89
2022/03/03 08:00:53;;;;;;;40.35;19.15;;;-0.60;99.90;;;;;;4991572;28;20116;-87
2022/03/03 08:03:21;;;;;;;32.15;17.33;;;-0.50;99.90;;;;;;4999345;28;20469;-86
2022/03/03 08:05:52;;;;;;;33.83;18.50;;;-0.30;99.90;;;;;;5003621;28;20243;-87
2022/03/03 08:08:24;;;;;;;32.97;17.65;;;-0.20;99.90;;;;;;5001359;28;20081;-87
2022/03/03 08:10:53;;;;;;;38.70;17.35;;;-0.10;99.90;;;;;;4998378;28;20033;-88
2022/03/03 08:13:19;;;;;;;35.25;20.58;;;0.00;99.90;;;;;;4994340;28;20026;-83
2022/03/03 08:15:45;;;;;;;35.28;18.95;;;0.10;99.90;;;;;;5000388;28;20093;-88
2022/03/03 08:18:11;;;;;;;33.10;17.92;;;0.00;99.90;;;;;;4998961;28;20036;-88
2022/03/03 08:20:38;;;;;;;40.38;20.52;;;0.10;99.90;;;;;;5007742;28;20052;-87
2022/03/03 08:23:06;;;;;;;36.65;18.65;;;0.20;99.90;;;;;;5001045;28;20026;-87
2022/03/03 08:25:34;;;;;;;36.83;19.70;;;0.30;99.90;;;;;;4997588;28;20362;-88
2022/03/03 08:28:01;;;;;;;38.35;20.60;;;0.40;99.90;;;;;;5002306;28;20253;-87
2022/03/03 08:30:27;;;;;;;38.85;19.27;;;0.50;99.90;;;;;;5004258;28;20509;-87
2022/03/03 08:33:00;;;;;;;30.40;16.33;;;0.70;99.90;;;;;;4991434;28;20121;-87
2022/03/03 08:35:29;;;;;;;39.78;19.92;;;0.80;99.90;;;;;;4990325;28;20520;-88
2022/03/03 08:38:06;;;;;;;32.70;17.55;;;0.80;99.90;;;;;;4987204;28;20067;-87
2022/03/03 08:40:33;;;;;;;38.55;19.95;;;0.90;99.90;;;;;;4991286;28;20026;-87
2022/03/03 08:43:02;;;;;;;39.85;21.60;;;1.10;99.90;;;;;;4973557;28;20036;-83
2022/03/03 08:45:31;;;;;;;39.15;19.02;;;1.20;98.90;;;;;;4989360;28;20231;-88
2022/03/03 08:48:07;;;;;;;32.65;20.00;;;1.40;98.70;;;;;;4991697;28;20065;-88
2022/03/03 08:50:35;;;;;;;38.45;18.17;;;1.50;98.00;;;;;;4991590;28;20035;-89
2022/03/03 08:53:03;;;;;;;38.25;19.58;;;1.70;97.70;;;;;;4991246;28;20040;-84
2022/03/03 08:55:30;;;;;;;36.10;20.05;;;2.00;96.60;;;;;;4991506;28;20019;-87
2022/03/03 08:57:58;;;;;;;35.53;18.70;;;1.90;96.80;;;;;;4991727;28;20527;-86
2022/03/03 09:00:24;;;;;;;33.65;18.73;;;2.00;95.90;;;;;;4982936;28;20080;-87
2022/03/03 09:02:50;;;;;;;34.30;17.85;;;2.20;93.90;;;;;;5003216;28;20497;-87
2022/03/03 09:05:16;;;;;;;34.03;18.15;;;2.40;94.30;;;;;;4998775;28;20031;-86
2022/03/03 09:07:42;;;;;;;32.50;17.35;;;2.60;94.40;;;;;;4999771;28;20359;-86
2022/03/03 09:10:08;;;;;;;35.60;17.67;;;2.90;94.20;;;;;;4994246;28;20042;-88
2022/03/03 09:12:34;;;;;;;37.60;19.83;;;3.00;92.70;;;;;;5004170;28;20034;-87
2022/03/03 09:15:00;;;;;;;32.10;18.48;;;3.00;92.20;;;;;;4998551;28;20044;-86
2022/03/03 09:17:26;;;;;;;36.53;19.05;;;3.20;93.20;;;;;;5003071;28;20458;-88
2022/03/03 09:19:52;;;;;;;38.78;20.95;;;3.00;91.90;;;;;;5006770;28;20504;-87
2022/03/03 09:22:17;;;;;;;36.47;18.73;;;2.90;92.40;;;;;;5009403;28;20161;-85
2022/03/03 09:24:43;;;;;;;34.83;18.33;;;3.00;91.90;;;;;;5000129;28;20034;-86
2022/03/03 09:27:09;;;;;;;32.38;18.02;;;3.10;92.30;;;;;;5003852;28;20037;-84
2022/03/03 09:29:35;;;;;;;35.28;19.33;;;3.30;91.30;;;;;;5004858;28;20029;-85
2022/03/03 09:32:03;;;;;;;32.85;17.27;;;3.50;91.40;;;;;;4993880;28;20035;-84
2022/03/03 09:34:28;;;;;;;32.30;18.45;;;3.50;90.40;;;;;;5000677;28;20030;-85
2022/03/03 09:36:57;;;;;;;32.40;18.95;;;3.60;90.70;;;;;;4998358;28;20028;-85
2022/03/03 09:39:23;;;;;;;30.35;19.60;;;3.70;90.10;;;;;;4992466;28;20477;-84
2022/03/03 09:41:51;;;;;;;32.20;18.52;;;3.70;89.10;;;;;;4999164;28;20638;-85
2022/03/03 09:44:21;;;;;;;30.30;16.48;;;3.60;88.50;;;;;;4998124;28;20034;-82
2022/03/03 09:46:47;;;;;;;34.35;18.88;;;3.80;88.10;;;;;;4994209;28;20130;-83
2022/03/03 09:49:13;;;;;;;32.25;18.30;;;3.90;86.30;;;;;;4998156;28;20030;-84
2022/03/03 09:51:38;;;;;;;33.83;18.52;;;4.20;87.90;;;;;;4995180;28;20377;-84
2022/03/03 09:54:08;;;;;;;42.10;17.45;;;4.30;84.80;;;;;;5002008;28;20049;-85
2022/03/03 09:56:34;;;;;;;31.38;18.30;;;4.60;84.30;;;;;;4998724;28;20561;-85
2022/03/03 09:58:59;;;;;;;34.58;18.80;;;4.80;83.40;;;;;;4997983;28;20144;-84
2022/03/03 10:01:29;;;;;;;33.90;20.58;;;4.90;81.80;;;;;;5000275;28;20034;-86
2022/03/03 10:04:12;;;;;;;32.15;21.05;;;4.80;79.90;;;;;;4996151;28;20061;-85
2022/03/03 10:06:42;;;;;;;30.60;16.75;;;4.90;79.60;;;;;;4999557;28;20034;-85
2022/03/03 10:09:09;;;;;;;37.67;20.17;;;5.00;78.70;;;;;;4995621;28;20124;-85
2022/03/03 10:12:03;;;;;;;39.58;18.15;;;4.90;79.70;;;;;;4997638;28;20382;-84
2022/03/03 10:14:38;;;;;;;31.00;19.70;;;5.00;79.90;;;;;;4998320;28;20023;-85
2022/03/03 10:17:05;;;;;;;36.60;19.40;;;5.30;81.80;;;;;;4992390;28;20052;-83
2022/03/03 10:19:32;;;;;;;29.00;16.73;;;5.40;76.00;;;;;;4994217;28;20436;-84
2022/03/03 10:21:57;;;;;;;29.27;16.85;;;5.40;75.00;;;;;;4992269;28;20042;-83
2022/03/03 10:24:28;;;;;;;28.42;17.88;;;5.50;73.90;;;;;;4997484;28;20145;-81
2022/03/03 10:27:04;;;;;;;31.20;18.00;;;5.50;74.50;;;;;;4997127;28;20067;-86
2022/03/03 10:29:30;;;;;;;29.05;16.63;;;5.70;70.70;;;;;;4997352;28;20354;-83
2022/03/03 10:31:57;;;;;;;31.58;17.55;;;5.70;69.30;;;;;;4994100;28;20084;-82
2022/03/03 10:34:26;;;;;;;26.40;15.32;;;6.00;69.30;;;;;;4996084;28;20388;-84
2022/03/03 10:37:10;;;;;;;31.67;18.48;;;6.10;67.50;;;;;;4998965;28;20030;-82
2022/03/03 10:39:44;;;;;;;31.25;16.80;;;6.00;73.90;;;;;;4987331;28;20032;-81
2022/03/03 10:42:19;;;;;;;26.90;17.17;;;5.90;73.30;;;;;;4995129;28;20118;-82
2022/03/03 10:44:45;;;;;;;32.72;19.35;;;6.00;74.80;;;;;;4996047;28;20105;-84
2022/03/03 10:47:17;;;;;;;31.27;19.05;;;5.90;73.90;;;;;;4997312;28;20050;-80
2022/03/03 10:49:47;;;;;;;31.60;18.52;;;6.10;73.40;;;;;;4998288;28;20141;-84
2022/03/03 10:52:20;;;;;;;32.45;18.88;;;6.10;72.40;;;;;;4998417;28;20218;-83
2022/03/03 10:54:57;;;;;;;31.98;18.80;;;6.20;71.50;;;;;;4997494;28;20041;-82
2022/03/03 10:57:29;;;;;;;28.73;16.52;;;6.30;71.70;;;;;;4995149;28;20347;-81
2022/03/03 10:59:57;;;;;;;30.13;17.95;;;6.40;70.20;;;;;;4996338;28;20044;-83
2022/03/03 11:02:27;;;;;;;31.58;17.63;;;6.40;71.70;;;;;;4988861;28;20116;-83
2022/03/03 11:04:53;;;;;;;28.70;19.02;;;6.30;70.20;;;;;;4999685;28;20085;-84
2022/03/03 11:07:20;;;;;;;29.27;18.20;;;6.30;70.30;;;;;;4998207;28;20036;-80
2022/03/03 11:09:47;;;;;;;29.65;16.00;;;6.50;69.70;;;;;;4999034;28;20044;-82
2022/03/03 11:12:13;;;;;;;26.10;16.77;;;6.60;67.90;;;;;;4987494;28;20085;-83
2022/03/03 11:14:39;;;;;;;29.75;18.55;;;6.60;68.40;;;;;;4997213;28;20026;-83
2022/03/03 11:17:06;;;;;;;30.20;18.70;;;6.70;67.30;;;;;;4999113;28;20046;-83
2022/03/03 11:19:32;;;;;;;33.97;17.30;;;6.80;67.20;;;;;;4996951;28;20029;-82
2022/03/03 11:21:58;;;;;;;28.10;17.85;;;7.00;67.10;;;;;;4992921;28;20038;-83
2022/03/03 11:24:24;;;;;;;31.40;19.67;;;7.10;67.10;;;;;;5010247;28;20116;-82
2022/03/03 11:26:50;;;;;;;31.60;18.90;;;7.10;65.30;;;;;;4995978;28;20528;-82
2022/03/03 11:29:20;;;;;;;25.83;16.80;;;7.10;66.10;;;;;;5004954;28;20030;-82
2022/03/03 11:32:00;;;;;;;32.53;19.00;;;7.40;65.60;;;;;;4997980;28;20632;-82
2022/03/03 11:34:32;;;;;;;32.28;16.40;;;7.60;60.80;;;;;;4993445;28;20030;-84
2022/03/03 11:37:04;;;;;;;32.65;16.52;;;7.60;59.00;;;;;;4988313;28;20417;-82
2022/03/03 11:39:52;;;;;;;28.98;16.85;;;7.70;57.50;;;;;;4991653;28;20034;-82
2022/03/03 11:42:59;;;;;;;28.13;16.83;;;7.80;57.70;;;;;;4994952;28;20112;-82
2022/03/03 11:45:28;;;;;;;26.38;15.98;;;7.80;57.30;;;;;;4939695;29;20362;-83
2022/03/03 11:48:20;;;;;;;30.48;16.98;;;7.90;54.60;;;;;;4982370;28;20049;-83
2022/03/03 11:50:50;;;;;;;27.60;15.43;;;8.00;53.50;;;;;;4996613;28;20074;-82
2022/03/03 11:53:22;;;;;;;29.42;15.48;;;8.20;53.80;;;;;;4991606;28;20061;-84
2022/03/03 11:56:03;;;;;;;28.33;17.25;;;8.40;53.40;;;;;;4997421;28;20042;-83
2022/03/03 11:58:38;;;;;;;26.60;16.27;;;8.50;54.10;;;;;;4989852;28;20030;-81
2022/03/03 12:01:08;;;;;;;31.02;15.88;;;8.90;54.20;;;;;;4986114;28;20046;-80
2022/03/03 12:04:05;;;;;;;24.35;15.85;;;9.20;52.80;;;;;;4991738;28;20040;-83
2022/03/03 12:06:45;;;;;;;26.55;15.98;;;9.60;52.30;;;;;;4992196;28;20038;-82
2022/03/03 12:09:32;;;;;;;28.90;15.27;;;9.60;49.20;;;;;;4992520;28;20037;-81
2022/03/03 12:12:17;;;;;;;27.50;15.55;;;9.80;47.30;;;;;;4996847;28;20128;-82
2022/03/03 12:14:54;;;;;;;27.88;16.98;;;11.00;45.70;;;;;;4990232;28;20027;-83
2022/03/03 12:17:40;;;;;;;26.13;15.38;;;11.70;44.90;;;;;;4993057;28;20030;-82
2022/03/03 12:20:29;;;;;;;27.95;14.88;;;12.10;40.60;;;;;;4993715;28;20499;-80
2022/03/03 12:23:07;;;;;;;25.58;17.25;;;13.10;39.30;;;;;;4992260;28;20026;-82
2022/03/03 12:25:51;;;;;;;25.33;15.32;;;12.70;38.50;;;;;;5000048;28;20497;-78
2022/03/03 12:28:40;;;;;;;28.55;17.13;;;13.00;39.50;;;;;;4994665;28;20252;-80
2022/03/03 12:31:19;;;;;;;25.55;15.18;;;12.90;37.30;;;;;;4999008;28;20041;-79
2022/03/03 12:34:05;;;;;;;25.33;16.05;;;13.70;36.10;;;;;;4993908;28;20033;-78
2022/03/03 12:36:31;;;;;;;29.45;17.10;;;14.00;33.80;;;;;;4990646;28;20018;-79
2022/03/03 12:38:58;;;;;;;23.92;14.65;;;13.90;35.90;;;;;;4998385;28;20048;-79